KBFM/BFM METAR and TAF weather

Enter ICAO airport designator
Station Type Date Time Source
KBFM METAR 2021/01/27 13:53 UTC NOAA

KBFM 271353Z 35003KT 1SM BR OVC003 17/17 A2998 RMK AO2 SLP153 T01720167


Station Type Date Time Source
KBFM Decoded METAR 2021/01/27 13:53 UTC NOAA

MOBILE DOWNTOWN AIRPORT, AL, United States (KBFM) 30-38N 88-04W 20M
Jan 27, 2021 - 08:53 AM EST / 2021.01.27 1353 UTC
Wind: from the N (350 degrees) at 3 MPH (3 KT):0
Visibility: 1 mile(s):0
Sky conditions: overcast
Weather: mist
Temperature: 63.0 F (17.2 C)
Dew Point: 62.1 F (16.7 C)
Relative Humidity: 96%
Pressure (altimeter): 29.98 in. Hg (1015 hPa)
ob: KBFM 271353Z 35003KT 1SM BR OVC003 17/17 A2998 RMK AO2 SLP153 T01720167
cycle: 14

Station Type Date Time Source
KBFM TAF 2021/01/27 14:54 UTC NOAA

TAF
AMD KBFM 271351Z 2714/2812 34005KT 2SM BR VCSH OVC003
TEMPO 2714/2715 1/2SM FG VV002
FM271500 30008KT 5SM -SHRA BR OVC007
FM271800 32012KT P6SM OVC015
FM272100 33016KT P6SM SCT050
FM280300 35013KT P6SM SKC

Example: see airport list